Latest Weather Observations for Shark Bay Airport

IDW60801

Issued at 6:03 pm WST Sunday 26 February 2017 (issued every 30 minutes, with the page automatically refreshed every 10 minutes)

About weather observations | Map of weather stations | Latest weather observations for WA | Other Formats
Station Details ID: 006105 Name: SHARK BAY AIRPORT Lat: -25.89 Lon: 113.58 Height: 33.8 m
Data from the previous 72 hours. | See also: Recent months at Shark Bay Airport
Date/Time
WST
Temp
°C
App
Temp
°C
Dew
Point
°C
Rel
Hum
%
Delta-T
°C
Wind Press
QNH
hPa
Press
MSL
hPa
Rain since
9am
mm
Dir  Spd
km/h
Gust
km/h
Spd
kts
Gust
kts
26/06:00pm 28.2 27.8 20.2 62 5.3 SW 22 30 12 16 1009.8 1009.6 0.0
26/05:30pm 28.8 28.3 20.0 59 5.8 SW 22 32 12 17 1009.8 1009.6 0.0
26/05:00pm 29.6 28.6 19.6 55 6.5 SW 24 35 13 19 1009.9 1009.7 0.0
26/04:30pm 29.9 28.6 19.9 55 6.6 SW 26 33 14 18 1010.0 1009.8 0.0
26/04:00pm 30.4 29.6 20.0 53 6.9 SW 24 33 13 18 1010.2 1010.0 0.0
26/03:30pm 31.2 30.5 20.2 52 7.3 SW 24 35 13 19 1010.2 1010.0 0.0
26/03:00pm 32.4 32.0 19.3 46 8.6 SW 20 28 11 15 1010.3 1010.1 0.0
26/02:30pm 32.5 31.4 19.4 46 8.6 SW 24 30 13 16 1010.4 1010.2 0.0
26/02:00pm 32.6 32.0 18.8 44 9.0 SW 20 28 11 15 1010.6 1010.4 0.0
26/01:30pm 32.3 31.8 19.2 46 8.6 SW 20 30 11 16 1010.7 1010.5 0.0
26/01:00pm 31.8 30.3 17.7 43 9.0 SW 22 28 12 15 1011.0 1010.8 0.0
26/12:30pm 32.1 30.5 16.4 39 9.9 SW 20 30 11 16 1011.2 1011.0 0.0
26/12:00pm 30.6 29.7 19.9 52 7.1 SW 24 32 13 17 1011.3 1011.1 0.0
26/11:30am 31.2 31.5 19.5 49 7.7 S 17 28 9 15 1011.4 1011.2 0.0
26/11:00am 31.2 32.1 19.2 48 7.8 SSE 13 26 7 14 1011.5 1011.3 0.0
26/10:30am 29.1 28.9 19.7 57 6.1 SW 20 28 11 15 1012.0 1011.8 0.0
26/10:00am 28.6 28.2 20.1 60 5.6 SSW 22 30 12 16 1012.0 1011.8 0.0
26/09:30am 28.0 27.8 19.8 61 5.4 S 20 30 11 16 1011.9 1011.7 0.0
26/09:00am 26.9 26.4 20.0 66 4.5 S 22 32 12 17 1011.7 1011.5 0.0
26/08:30am 25.8 25.0 20.1 71 3.7 S 24 30 13 16 1011.7 1011.5 0.0
26/08:00am 25.0 25.2 20.5 76 2.9 SSE 20 28 11 15 1011.6 1011.4 0.0
26/07:30am 23.7 24.1 20.6 83 2.0 S 19 26 10 14 1011.3 1011.1 0.0
26/07:00am 22.3 23.3 20.2 88 1.4 SSW 15 22 8 12 1011.0 1010.8 0.0
26/06:30am 21.9 22.7 19.8 88 1.3 SSW 15 20 8 11 1010.8 1010.6 0.0
26/06:00am 21.8 22.8 19.5 87 1.5 SSW 13 20 7 11 1010.6 1010.4 0.0
26/05:30am 22.2 22.1 19.9 87 1.5 SSW 20 26 11 14 1010.2 1010.0 0.0
26/05:00am 22.3 22.3 19.8 86 1.6 SW 19 30 10 16 1010.0 1009.8 0.0
26/04:30am 22.3 22.1 19.7 85 1.7 SW 20 26 11 14 1009.8 1009.6 0.0
26/04:00am 22.3 22.3 19.7 85 1.7 SW 19 24 10 13 1009.9 1009.7 0.0
26/03:30am 22.5 22.6 19.9 85 1.7 SW 19 26 10 14 1010.3 1010.1 0.0
26/03:00am 22.4 22.9 20.1 87 1.5 SW 17 24 9 13 1010.8 1010.6 0.0
26/02:30am 22.5 23.5 20.2 87 1.5 SSW 15 19 8 10 1011.4 1011.2 0.0
26/02:00am 22.5 24.1 20.0 86 1.6 SW 11 17 6 9 1011.5 1011.3 0.0
26/01:30am 22.8 24.1 20.1 85 1.7 SSW 13 20 7 11 1012.0 1011.8 0.0
26/01:00am 23.3 23.7 20.6 85 1.8 SW 19 24 10 13 1011.6 1011.4 0.0
26/12:30am 23.3 24.4 20.4 84 1.9 WNW 15 20 8 11 1012.0 1011.8 0.0
26/12:00am 23.4 24.1 20.5 84 1.9 SW 17 22 9 12 1012.2 1012.0 0.0
 
Date/Time
WST
Temp
°C
App
Temp
°C
Dew
Point
°C
Rel
Hum
%
Delta-T
°C
Wind Press
QNH
hPa
Press
MSL
hPa
Rain since
9am
mm
Dir  Spd
km/h
Gust
km/h
Spd
kts
Gust
kts
25/11:30pm 23.8 25.0 20.7 83 2.0 SSE 15 20 8 11 1012.7 1012.5 0.0
25/11:00pm 23.9 25.6 21.0 84 1.9 SSE 13 20 7 11 1012.9 1012.7 0.0
25/10:30pm 23.6 25.2 20.7 84 1.9 S 13 20 7 11 1012.5 1012.3 0.0
25/10:00pm 23.7 25.0 20.8 84 1.9 SSW 15 22 8 12 1012.3 1012.1 0.0
25/09:30pm 24.0 24.6 21.1 84 1.9 SSW 19 28 10 15 1012.3 1012.1 0.0
25/09:00pm 24.2 24.8 21.1 83 2.0 SSW 19 26 10 14 1012.0 1011.8 0.0
25/08:30pm 24.3 25.2 20.8 81 2.3 SSW 17 22 9 12 1012.0 1011.8 0.0
25/08:00pm 24.7 25.7 21.0 80 2.4 SSW 17 24 9 13 1011.7 1011.5 0.0
25/07:30pm 25.0 25.1 21.1 79 2.6 SW 22 28 12 15 1011.4 1011.2 0.0
25/07:00pm 25.4 25.5 21.1 77 2.8 SW 22 30 12 16 1011.3 1011.1 0.0
25/06:30pm 26.2 25.7 20.8 72 3.6 SW 24 33 13 18 1011.1 1010.9 0.0
25/06:00pm 27.5 26.6 20.6 66 4.6 SW 26 35 14 19 1010.9 1010.7 0.0
25/05:30pm 28.3 27.8 20.8 63 5.0 SW 24 32 13 17 1010.9 1010.7 0.0
25/05:00pm 29.3 28.7 20.5 59 5.8 SW 24 32 13 17 1010.8 1010.6 0.0
25/04:30pm 30.2 30.4 21.3 59 6.0 SW 22 30 12 16 1010.7 1010.5 0.0
25/04:00pm 31.4 31.7 20.7 53 7.1 SW 20 28 11 15 1011.0 1010.8 0.0
25/03:30pm 31.6 30.7 19.9 50 7.7 SW 24 32 13 17 1010.9 1010.7 0.0
25/03:00pm 31.3 30.9 20.9 54 7.0 SW 24 32 13 17 1011.2 1011.0 0.0
25/02:30pm 32.1 31.7 21.0 52 7.5 SW 24 32 13 17 1011.4 1011.2 0.0
25/02:00pm 32.6 32.3 21.1 50 7.7 WSW 24 33 13 18 1011.6 1011.4 0.0
25/01:30pm 31.5 30.8 19.5 49 7.9 SW 22 30 12 16 1012.1 1011.9 0.0
25/01:00pm 32.5 32.0 17.9 41 9.4 WSW 17 28 9 15 1012.2 1012.0 0.0
25/12:30pm 33.2 32.1 15.2 33 11.2 WSW 15 22 8 12 1012.5 1012.3 0.0
25/12:00pm 31.7 32.2 19.3 47 8.1 SW 15 20 8 11 1012.8 1012.6 0.0
25/11:30am 30.7 32.2 19.7 52 7.2 WSW 11 19 6 10 1013.3 1013.1 0.0
25/11:00am 30.1 31.4 20.1 55 6.6 SW 13 17 7 9 1013.5 1013.3 0.0
25/10:30am 29.7 30.2 20.8 58 5.9 SW 19 26 10 14 1013.3 1013.1 0.0
25/10:00am 28.8 30.7 21.3 64 5.0 SW 13 22 7 12 1013.4 1013.2 0.0
25/09:30am 27.7 29.1 21.0 67 4.4 WSW 15 19 8 10 1013.5 1013.3 0.0
25/09:00am 27.0 27.7 21.5 72 3.7 SW 20 26 11 14 1013.2 1013.0 0.0
25/08:30am 26.4 28.1 21.6 75 3.2 SW 15 19 8 10 1013.3 1013.1 0.0
25/08:00am 25.6 28.0 22.3 82 2.2 SW 13 17 7 9 1013.2 1013.0 0.0
25/07:30am 24.4 27.4 22.7 90 1.1 SW 11 17 6 9 1013.0 1012.8 0.0
25/07:00am 22.8 25.5 21.3 91 1.0 SW 9 11 5 6 1012.9 1012.7 0.0
25/06:30am 21.9 23.7 20.4 91 1.0 WSW 11 13 6 7 1012.7 1012.5 0.0
25/06:00am 21.8 23.9 20.1 90 1.1 WSW 9 13 5 7 1012.5 1012.3 0.0
25/05:30am 22.0 23.7 20.1 89 1.2 SW 11 13 6 7 1012.3 1012.1 0.0
25/05:00am 22.0 24.0 19.9 88 1.3 WSW 9 13 5 7 1012.2 1012.0 0.0
25/04:30am 22.6 23.8 20.7 89 1.2 SW 15 17 8 9 1012.2 1012.0 0.0
25/04:00am 22.1 23.0 20.0 88 1.4 WSW 15 17 8 9 1012.1 1011.9 0.0
25/03:30am 22.2 24.3 20.1 88 1.4 SW 9 11 5 6 1012.3 1012.1 0.0
25/03:00am 22.3 23.7 20.4 89 1.2 WSW 13 15 7 8 1012.3 1012.1 0.0
25/02:30am 22.1 23.3 20.0 88 1.3 WSW 13 15 7 8 1012.6 1012.4 0.0
25/02:00am 22.1 23.3 20.0 88 1.3 WSW 13 15 7 8 1012.8 1012.6 0.0
25/01:30am 22.0 23.0 19.5 86 1.6 WSW 13 17 7 9 1013.0 1012.8 0.0
25/01:00am 22.3 23.8 19.8 86 1.6 WSW 11 13 6 7 1013.1 1012.9 0.0
25/12:30am 22.7 24.0 20.2 86 1.6 W 13 17 7 9 1013.5 1013.3 0.0
25/12:00am 22.1 22.4 18.7 81 2.1 WSW 15 17 8 9 1013.8 1013.6 0.0
 
Date/Time
WST
Temp
°C
App
Temp
°C
Dew
Point
°C
Rel
Hum
%
Delta-T
°C
Wind Press
QNH
hPa
Press
MSL
hPa
Rain since
9am
mm
Dir  Spd
km/h
Gust
km/h
Spd
kts
Gust
kts
24/11:30pm 21.8 22.1 18.0 79 2.4 W 13 15 7 8 1014.0 1013.8 0.0
24/11:00pm 22.0 22.5 17.4 75 2.8 WSW 11 11 6 6 1014.1 1013.9 0.0
24/10:30pm 22.4 23.1 17.1 72 3.3 W 9 11 5 6 1014.1 1013.9 0.0
24/10:00pm 22.9 23.5 16.7 68 3.8 WSW 9 11 5 6 1014.0 1013.8 0.0
24/09:30pm 23.5 23.5 16.3 64 4.4 SW 11 15 6 8 1014.0 1013.8 0.0
24/09:00pm 24.3 24.3 17.3 65 4.3 SW 13 15 7 8 1013.8 1013.6 0.0
24/08:30pm 24.9 25.4 17.4 63 4.7 SW 11 17 6 9 1013.7 1013.5 0.0
24/08:00pm 25.5 25.8 17.9 63 4.8 SW 13 19 7 10 1013.4 1013.2 0.0
24/07:30pm 26.2 25.5 18.6 63 4.8 WSW 20 28 11 15 1013.3 1013.1 0.0
24/07:00pm 27.0 27.4 19.9 65 4.6 WSW 17 20 9 11 1013.0 1012.8 0.0
24/06:30pm 28.5 28.2 19.2 57 6.0 WSW 19 22 10 12 1012.5 1012.3 0.0
24/06:00pm 30.5 29.0 17.6 46 8.2 W 22 28 12 15 1012.3 1012.1 0.0
24/05:30pm 32.1 30.6 16.4 39 9.9 W 19 24 10 13 1012.4 1012.2 0.0
24/05:00pm 33.5 30.8 13.5 29 12.1 W 20 26 11 14 1012.2 1012.0 0.0
24/04:30pm 34.2 31.6 13.1 28 12.8 W 19 22 10 12 1012.1 1011.9 0.0
24/04:00pm 35.1 32.5 12.1 25 13.8 WNW 17 22 9 12 1012.1 1011.9 0.0
24/03:30pm 35.1 32.1 12.7 26 13.5 W 20 26 11 14 1012.3 1012.1 0.0
24/03:00pm 35.7 33.3 14.4 28 13.2 WNW 20 26 11 14 1012.4 1012.2 0.0
24/02:30pm 35.8 33.4 13.9 27 13.5 WNW 19 26 10 14 1012.6 1012.4 0.0
24/02:00pm 36.6 34.3 14.0 26 14.0 WNW 19 26 10 14 1012.8 1012.6 0.0
24/01:30pm 37.4 34.7 12.8 23 15.0 W 19 26 10 14 1013.1 1012.9 0.0
24/01:00pm 37.2 33.8 11.2 21 15.5 WNW 20 28 11 15 1013.4 1013.2 0.0
24/12:30pm 36.1 34.9 11.7 23 14.6 NNE 9 15 5 8 1013.6 1013.4 0.0
24/12:00pm 35.7 33.7 11.4 23 14.4 ENE 13 19 7 10 1013.8 1013.6 0.0
24/11:30am 35.2 32.8 12.8 26 13.5 ENE 17 24 9 13 1014.1 1013.9 0.0
24/11:00am 34.8 33.3 13.0 26 13.2 ENE 13 24 7 13 1014.1 1013.9 0.0
24/10:30am 34.1 32.1 10.0 23 13.9 E 11 17 6 9 1014.3 1014.1 0.0
24/10:00am 32.9 30.9 10.3 25 13.0 ENE 11 17 6 9 1014.5 1014.3 0.0
24/09:30am 31.8 30.3 10.5 27 12.3 ENE 9 17 5 9 1014.5 1014.3 0.0
24/09:00am 30.9 29.4 11.8 31 11.2 ENE 11 15 6 8 1014.4 1014.2 0.0
24/08:30am 29.5 28.7 14.1 39 9.3 E 11 17 6 9 1014.3 1014.1 0.0
24/08:00am 26.7 27.8 17.2 56 5.9 SE 7 11 4 6 1014.1 1013.9 0.0
24/07:30am 23.8 24.1 16.1 62 4.7 SSE 9 11 5 6 1014.1 1013.9 0.0
24/07:00am 21.8 22.1 17.0 74 2.9 SSE 11 15 6 8 1013.9 1013.7 0.0
24/06:30am 20.5 20.7 16.7 79 2.3 S 11 13 6 7 1013.8 1013.6 0.0
24/06:00am 20.9 21.2 16.9 78 2.4 S 11 13 6 7 1013.5 1013.3 0.0
24/05:30am 22.2 22.3 18.4 79 2.4 SSW 15 17 8 9 1013.3 1013.1 0.0
24/05:00am 22.3 22.6 18.7 80 2.3 SSW 15 19 8 10 1013.3 1013.1 0.0
24/04:30am 22.0 22.4 18.2 79 2.4 SSW 13 15 7 8 1013.2 1013.0 0.0
24/04:00am 22.2 22.3 18.4 79 2.4 SSW 15 19 8 10 1013.2 1013.0 0.0
24/03:30am 22.2 22.7 18.4 79 2.4 SSW 13 17 7 9 1013.4 1013.2 0.0
24/03:00am 22.3 22.5 18.5 79 2.4 SSW 15 20 8 11 1013.6 1013.4 0.0
24/02:30am 22.3 22.5 18.5 79 2.4 SSW 15 19 8 10 1013.7 1013.5 0.0
24/02:00am 22.3 22.5 18.5 79 2.4 SSW 15 17 8 9 1013.9 1013.7 0.0
24/01:30am 22.0 22.4 18.2 79 2.4 SSW 13 17 7 9 1014.0 1013.8 0.0
24/01:00am 22.2 23.2 17.8 76 2.7 SSE 9 11 5 6 1014.2 1014.0 0.0
24/12:30am 22.8 23.1 17.9 74 3.1 SSW 13 17 7 9 1014.5 1014.3 0.0
24/12:00am 23.3 22.8 17.7 71 3.5 SSW 17 22 9 12 1014.5 1014.3 0.0
 
Date/Time
WST
Temp
°C
App
Temp
°C
Dew
Point
°C
Rel
Hum
%
Delta-T
°C
Wind Press
QNH
hPa
Press
MSL
hPa
Rain since
9am
mm
Dir  Spd
km/h
Gust
km/h
Spd
kts
Gust
kts
23/11:30pm 23.7 22.6 17.7 69 3.7 SSW 20 26 11 14 1014.7 1014.5 0.0
23/11:00pm 23.7 22.8 17.7 69 3.7 SSW 19 26 10 14 1015.0 1014.8 0.0
23/10:30pm 24.3 23.1 17.5 66 4.2 SSW 20 30 11 16 1015.1 1014.9 0.0
23/10:00pm 24.6 23.3 17.3 64 4.5 S 20 32 11 17 1015.1 1014.9 0.0
23/09:30pm 25.0 22.5 16.2 58 5.4 S 24 35 13 19 1015.0 1014.8 0.0
23/09:00pm 25.0 23.2 15.9 57 5.5 SSW 20 28 11 15 1014.9 1014.7 0.0
23/08:30pm 25.7 22.1 14.2 49 6.8 SSW 26 35 14 19 1014.6 1014.4 0.0
23/08:00pm 26.3 22.6 12.7 43 7.9 SSW 24 35 13 19 1014.4 1014.2 0.0
23/07:30pm 26.3 24.9 16.5 54 6.1 SSW 19 26 10 14 1014.0 1013.8 0.0
23/07:00pm 27.4 25.7 17.3 54 6.3 SSW 22 32 12 17 1013.6 1013.4 0.0
23/06:30pm 29.5 26.2 14.1 39 9.3 SSW 24 33 13 18 1013.2 1013.0 0.0

Other Formats:

Comma delimited format used in spreadsheet applications
http://www.bom.gov.au/fwo/IDW60801/IDW60801.95402.axf

JavaScript Object Notation format (JSON) in row-major order
http://www.bom.gov.au/fwo/IDW60801/IDW60801.95402.json